createdAt,value
2023-04-19T00:01:01.618Z,69.40
2023-04-19T00:03:30.598Z,69.31
2023-04-19T00:05:59.333Z,69.43
2023-04-19T00:08:26.367Z,69.45
2023-04-19T00:10:52.989Z,69.76
2023-04-19T00:13:19.513Z,69.95
2023-04-19T00:15:45.985Z,70.70
2023-04-19T00:18:12.460Z,70.88
2023-04-19T00:20:39.244Z,70.88
2023-04-19T00:23:05.758Z,71.21
2023-04-19T00:25:34.566Z,71.10
2023-04-19T00:28:01.116Z,71.00
2023-04-19T00:30:27.540Z,71.36
2023-04-19T00:32:54.078Z,71.43
2023-04-19T00:35:20.695Z,71.33
2023-04-19T00:37:47.089Z,71.49
2023-04-19T00:40:13.527Z,71.47
2023-04-19T00:42:40.031Z,71.46
2023-04-19T00:45:07.104Z,71.55
2023-04-19T00:47:34.120Z,71.88
2023-04-19T00:50:00.634Z,72.11
2023-04-19T00:52:27.133Z,72.22
2023-04-19T00:54:53.831Z,72.32
2023-04-19T00:57:20.526Z,72.39
2023-04-19T00:59:47.572Z,72.70
2023-04-19T01:02:14.439Z,73.04
2023-04-19T01:04:41.157Z,72.98
2023-04-19T01:07:07.571Z,72.80
2023-04-19T01:09:34.841Z,72.93
2023-04-19T01:12:02.249Z,73.07
2023-04-19T01:14:28.767Z,73.97
2023-04-19T01:16:55.205Z,73.33
2023-04-19T01:19:21.676Z,74.02
2023-04-19T01:21:48.702Z,74.09
2023-04-19T01:24:15.300Z,74.70
2023-04-19T01:26:41.992Z,74.79
2023-04-19T01:29:08.480Z,74.99
2023-04-19T01:31:35.230Z,75.10
2023-04-19T01:34:01.836Z,74.86
2023-04-19T01:36:28.430Z,75.06
2023-04-19T01:38:55.884Z,75.06
2023-04-19T01:41:26.728Z,74.92
2023-04-19T01:43:53.283Z,74.95
2023-04-19T01:46:19.770Z,75.61
2023-04-19T01:48:46.212Z,75.25
2023-04-19T01:51:12.652Z,75.37
2023-04-19T01:53:39.082Z,75.41
2023-04-19T01:56:05.818Z,75.39
2023-04-19T01:58:32.359Z,75.21
2023-04-19T02:00:58.812Z,75.00
2023-04-19T02:03:25.423Z,74.66
2023-04-19T02:05:52.021Z,75.16
2023-04-19T02:08:18.505Z,75.25
2023-04-19T02:10:44.892Z,75.04
2023-04-19T02:13:11.338Z,74.84
2023-04-19T02:15:37.864Z,74.53
2023-04-19T02:18:06.927Z,74.75
2023-04-19T02:20:33.542Z,75.24
2023-04-19T02:22:59.989Z,74.56
2023-04-19T02:25:26.444Z,74.59
2023-04-19T02:27:53.676Z,74.32
2023-04-19T02:30:20.415Z,74.44
2023-04-19T02:32:48.619Z,74.53
2023-04-19T02:35:15.108Z,74.45
2023-04-19T02:37:41.959Z,74.34
2023-04-19T02:40:08.996Z,74.54
2023-04-19T02:42:35.950Z,74.37
2023-04-19T02:45:02.355Z,74.08
2023-04-19T02:47:28.820Z,74.02
2023-04-19T02:49:55.556Z,74.24
2023-04-19T02:52:22.015Z,74.12
2023-04-19T02:54:48.533Z,73.77
2023-04-19T02:57:14.955Z,73.67
2023-04-19T02:59:41.359Z,74.16
2023-04-19T03:02:07.890Z,74.06
2023-04-19T03:04:34.537Z,74.11
2023-04-19T03:07:01.151Z,74.11
2023-04-19T03:09:27.562Z,74.46
2023-04-19T03:11:54.102Z,74.41
2023-04-19T03:14:20.659Z,74.31
2023-04-19T03:16:47.129Z,74.04
2023-04-19T03:19:13.558Z,73.95
2023-04-19T03:21:40.026Z,73.58
2023-04-19T03:24:06.620Z,73.66
2023-04-19T03:26:33.053Z,73.59
2023-04-19T03:28:59.519Z,73.75
2023-04-19T03:31:26.144Z,73.58
2023-04-19T03:33:52.658Z,73.58
2023-04-19T03:36:19.154Z,73.57
2023-04-19T03:38:45.639Z,73.32
2023-04-19T03:41:23.479Z,74.02
2023-04-19T03:43:50.062Z,73.53
2023-04-19T03:46:16.594Z,73.63
2023-04-19T03:48:43.128Z,73.47
2023-04-19T03:51:09.697Z,73.40
2023-04-19T03:53:36.804Z,73.14
2023-04-19T03:56:03.263Z,73.29
2023-04-19T03:58:29.722Z,72.94
2023-04-19T04:00:56.097Z,72.96
2023-04-19T04:03:22.835Z,72.94
2023-04-19T04:05:49.549Z,73.19
2023-04-19T04:08:16.046Z,72.97
2023-04-19T04:10:42.533Z,72.81
2023-04-19T04:13:08.968Z,72.99
2023-04-19T04:15:35.404Z,73.30
2023-04-19T04:18:02.015Z,73.57
2023-04-19T04:20:28.422Z,73.35
2023-04-19T04:22:54.856Z,73.61
2023-04-19T04:25:23.227Z,73.72
2023-04-19T04:27:52.925Z,73.99
2023-04-19T04:32:47.503Z,73.83
2023-04-19T04:35:14.194Z,74.10
2023-04-19T04:37:40.738Z,73.88
2023-04-19T04:40:10.738Z,73.67
2023-04-19T04:42:37.750Z,75.13
2023-04-19T04:45:04.736Z,74.08
2023-04-19T04:47:32.464Z,74.03
2023-04-19T04:49:59.787Z,73.83
2023-04-19T04:52:26.336Z,74.05
2023-04-19T04:54:52.820Z,73.73
2023-04-19T04:57:19.312Z,74.24
2023-04-19T04:59:48.036Z,74.34
2023-04-19T05:02:15.068Z,74.06
2023-04-19T05:04:41.780Z,73.73
2023-04-19T05:07:08.674Z,73.90
2023-04-19T05:09:35.104Z,74.09
2023-04-19T05:12:02.232Z,73.66
2023-04-19T05:14:28.756Z,73.39
2023-04-19T05:16:55.228Z,73.26
2023-04-19T05:19:21.671Z,73.05
2023-04-19T05:21:48.371Z,72.84
2023-04-19T05:24:14.973Z,72.69
2023-04-19T05:26:41.848Z,72.43
2023-04-19T05:29:08.306Z,72.47
2023-04-19T05:31:34.785Z,71.87
2023-04-19T05:34:01.443Z,71.78
2023-04-19T05:36:28.146Z,71.57
2023-04-19T05:38:54.676Z,71.27
2023-04-19T05:41:21.078Z,70.90
2023-04-19T05:43:47.869Z,70.73
2023-04-19T05:46:14.447Z,69.80
2023-04-19T05:48:40.931Z,69.13
2023-04-19T05:51:07.421Z,68.89
2023-04-19T05:53:33.843Z,68.45
2023-04-19T05:56:00.349Z,68.29
2023-04-19T05:58:27.219Z,67.92
2023-04-19T06:00:53.712Z,67.88
2023-04-19T06:03:20.523Z,67.66
2023-04-19T06:05:47.703Z,67.45
2023-04-19T06:08:16.435Z,67.11
2023-04-19T06:10:54.092Z,66.73
2023-04-19T06:13:23.423Z,66.56
2023-04-19T06:15:49.957Z,66.14
2023-04-19T06:18:19.505Z,65.63
2023-04-19T06:20:46.783Z,65.18
2023-04-19T06:23:14.762Z,64.49
2023-04-19T06:25:41.368Z,64.11
2023-04-19T06:28:07.774Z,63.84
2023-04-19T06:30:34.174Z,63.47
2023-04-19T06:33:00.929Z,63.11
2023-04-19T06:35:27.429Z,63.78
2023-04-19T06:37:53.889Z,64.00
2023-04-19T06:40:20.452Z,64.19
2023-04-19T06:42:46.945Z,64.15
2023-04-19T06:45:14.960Z,63.81
2023-04-19T06:47:41.466Z,63.27
2023-04-19T06:50:08.462Z,62.16
2023-04-19T06:52:34.961Z,60.33
2023-04-19T06:55:01.592Z,57.58
2023-04-19T06:57:28.056Z,56.20
2023-04-19T06:59:58.268Z,54.57
2023-04-19T07:02:25.106Z,54.18
2023-04-19T07:04:51.779Z,53.15
2023-04-19T07:07:18.267Z,51.83
2023-04-19T07:09:44.736Z,51.15
2023-04-19T07:12:11.171Z,50.70
2023-04-19T07:14:37.654Z,50.02
2023-04-19T07:17:05.489Z,49.64
2023-04-19T07:19:32.091Z,49.00
2023-04-19T07:21:58.514Z,48.58
2023-04-19T07:24:27.836Z,48.20
2023-04-19T07:26:54.511Z,47.90
2023-04-19T07:29:20.967Z,48.01
2023-04-19T07:31:47.515Z,47.65
2023-04-19T07:34:14.281Z,47.81
2023-04-19T07:36:40.912Z,47.62
2023-04-19T07:39:07.411Z,47.75
2023-04-19T07:41:34.939Z,46.92
2023-04-19T07:44:02.529Z,45.71
2023-04-19T07:46:29.013Z,45.62
2023-04-19T07:48:55.446Z,45.80
2023-04-19T07:51:23.889Z,45.36
2023-04-19T07:53:50.632Z,45.30
2023-04-19T07:56:17.203Z,45.31
2023-04-19T07:58:44.007Z,44.78
2023-04-19T08:01:11.884Z,44.40
2023-04-19T08:03:38.538Z,44.52
2023-04-19T08:06:07.144Z,43.99
2023-04-19T08:08:34.232Z,43.71
2023-04-19T08:11:02.469Z,43.81
2023-04-19T08:13:29.850Z,43.00
2023-04-19T08:18:26.773Z,42.32
2023-04-19T08:20:53.857Z,42.27
2023-04-19T08:23:24.506Z,42.46
2023-04-19T08:25:54.260Z,41.34
2023-04-19T08:28:20.817Z,40.58
2023-04-19T08:30:47.351Z,40.76
2023-04-19T08:33:13.799Z,40.58
2023-04-19T08:35:41.588Z,40.74
2023-04-19T08:38:08.716Z,40.62
2023-04-19T08:40:35.591Z,40.43
2023-04-19T08:43:06.546Z,39.97
2023-04-19T08:45:33.360Z,40.55
2023-04-19T08:48:02.480Z,39.75
2023-04-19T08:53:12.154Z,39.67
2023-04-19T08:56:03.333Z,39.89
2023-04-19T09:01:07.445Z,37.17
2023-04-19T09:03:44.060Z,37.89
2023-04-19T09:06:18.147Z,37.92
2023-04-19T09:08:44.793Z,38.32
2023-04-19T09:11:11.254Z,37.36
2023-04-19T09:13:38.768Z,36.74
2023-04-19T09:16:07.782Z,37.06
2023-04-19T09:19:02.608Z,33.39
2023-04-19T09:21:39.194Z,35.19
2023-04-19T09:24:06.423Z,34.79
2023-04-19T09:26:34.200Z,32.70
2023-04-19T09:29:02.592Z,32.37
2023-04-19T09:31:48.012Z,32.15
2023-04-19T09:34:17.979Z,32.20
2023-04-19T09:36:44.764Z,31.97
2023-04-19T09:39:11.372Z,31.80
2023-04-19T09:41:54.175Z,30.36
2023-04-19T09:46:53.600Z,30.03
2023-04-19T09:49:33.502Z,29.02
2023-04-19T09:52:08.706Z,29.11
2023-04-19T09:54:35.192Z,28.87
2023-04-19T09:57:02.631Z,28.62
2023-04-19T09:59:29.051Z,28.05
2023-04-19T10:01:56.485Z,28.10
2023-04-19T10:04:33.541Z,28.50
2023-04-19T10:07:29.014Z,27.82
2023-04-19T10:10:05.062Z,27.77
2023-04-19T10:13:06.921Z,27.52
2023-04-19T10:15:33.755Z,27.40
2023-04-19T10:18:09.968Z,27.19
2023-04-19T10:20:39.389Z,26.77
2023-04-19T10:23:07.274Z,26.66
2023-04-19T10:25:33.727Z,27.46
2023-04-19T10:28:00.534Z,27.16
2023-04-19T10:30:27.208Z,26.73
2023-04-19T10:32:56.395Z,27.30
2023-04-19T10:35:33.861Z,26.71
2023-04-19T10:38:06.976Z,25.24
2023-04-19T10:40:57.694Z,24.51
2023-04-19T10:43:25.196Z,25.75
2023-04-19T10:45:52.050Z,26.37
2023-04-19T10:48:33.041Z,25.48
2023-04-19T10:51:03.228Z,26.13
2023-04-19T10:53:48.819Z,25.68
2023-04-19T10:56:41.100Z,27.67
2023-04-19T10:59:11.517Z,27.18
2023-04-19T11:01:42.751Z,27.55
2023-04-19T11:04:11.018Z,27.37
2023-04-19T11:06:38.830Z,27.43
2023-04-19T11:09:10.666Z,26.83
2023-04-19T11:11:37.239Z,26.39
2023-04-19T11:14:04.309Z,25.99
2023-04-19T11:16:42.494Z,25.65
2023-04-19T11:19:19.809Z,24.15
2023-04-19T11:21:47.095Z,24.66
2023-04-19T11:24:16.237Z,24.97
2023-04-19T11:26:43.882Z,24.82
2023-04-19T11:29:10.797Z,24.68
2023-04-19T11:31:37.485Z,23.03
2023-04-19T11:34:04.065Z,24.04
2023-04-19T11:36:32.147Z,23.75
2023-04-19T11:38:58.645Z,23.30
2023-04-19T11:41:25.268Z,23.08
2023-04-19T11:43:52.021Z,23.58
2023-04-19T11:46:18.523Z,23.60
2023-04-19T11:48:53.180Z,22.91
2023-04-19T11:51:20.360Z,23.82
2023-04-19T11:53:47.045Z,23.59
2023-04-19T11:56:15.222Z,23.66
2023-04-19T11:58:45.008Z,23.72
2023-04-19T12:01:16.283Z,22.40
2023-04-19T12:03:53.705Z,22.15
2023-04-19T12:06:28.497Z,22.75
2023-04-19T12:08:56.046Z,22.94
2023-04-19T12:11:24.831Z,22.59
2023-04-19T12:14:13.676Z,22.47
2023-04-19T12:16:40.349Z,23.05
2023-04-19T12:19:14.434Z,22.24
2023-04-19T12:21:41.349Z,22.84
2023-04-19T12:24:07.853Z,23.82
2023-04-19T12:26:34.825Z,23.25
2023-04-19T12:29:03.268Z,23.17
2023-04-19T12:31:32.333Z,23.95
2023-04-19T12:33:58.815Z,25.95
2023-04-19T12:36:25.293Z,25.26
2023-04-19T12:38:51.864Z,26.00
2023-04-19T12:41:18.393Z,25.25
2023-04-19T12:43:44.804Z,25.38
2023-04-19T12:46:11.410Z,25.25
2023-04-19T12:48:37.884Z,25.34
2023-04-19T12:51:05.668Z,25.74
2023-04-19T12:53:32.084Z,24.76
2023-04-19T12:55:58.654Z,24.41
2023-04-19T12:58:25.153Z,24.79
2023-04-19T13:00:51.722Z,23.49
2023-04-19T13:03:18.259Z,23.00
2023-04-19T13:05:44.937Z,22.93
2023-04-19T13:08:11.445Z,22.99
2023-04-19T13:10:37.986Z,22.90
2023-04-19T13:13:04.468Z,22.34
2023-04-19T13:15:31.141Z,21.92
2023-04-19T13:17:57.669Z,21.36
2023-04-19T13:20:24.136Z,20.67
2023-04-19T13:22:50.675Z,20.03
2023-04-19T13:25:17.206Z,19.95
2023-04-19T13:27:43.799Z,19.75
2023-04-19T13:30:10.768Z,19.46
2023-04-19T13:32:37.545Z,19.14
2023-04-19T13:35:04.194Z,19.08
2023-04-19T13:37:30.660Z,18.79
2023-04-19T13:40:10.618Z,18.61
2023-04-19T13:42:43.525Z,18.83
2023-04-19T13:45:10.285Z,18.57
2023-04-19T13:47:36.999Z,18.06
2023-04-19T13:50:03.546Z,18.08
2023-04-19T13:52:29.939Z,18.19
2023-04-19T13:54:56.500Z,17.92
2023-04-19T13:57:23.010Z,17.66
2023-04-19T13:59:49.410Z,17.00
2023-04-19T14:02:16.188Z,17.69
2023-04-19T14:04:42.840Z,18.10
2023-04-19T14:07:09.860Z,17.54
2023-04-19T14:09:37.009Z,16.90
2023-04-19T14:12:04.468Z,17.34
2023-04-19T14:14:32.255Z,17.66
2023-04-19T14:16:59.031Z,17.27
2023-04-19T14:19:25.515Z,17.91
2023-04-19T14:21:51.948Z,17.77
2023-04-19T14:24:18.711Z,17.24
2023-04-19T14:26:45.365Z,17.50
2023-04-19T14:29:11.871Z,17.91
2023-04-19T14:31:38.436Z,18.04
2023-04-19T14:34:04.943Z,17.54
2023-04-19T14:36:31.482Z,18.17
2023-04-19T14:38:57.903Z,18.63
2023-04-19T14:41:24.687Z,17.85
2023-04-19T14:43:52.105Z,17.88
2023-04-19T14:46:18.705Z,17.83
2023-04-19T14:48:45.246Z,18.13
2023-04-19T14:51:11.731Z,18.15
2023-04-19T14:53:38.199Z,18.26
2023-04-19T14:56:05.888Z,18.39
2023-04-19T14:58:32.364Z,18.84
2023-04-19T15:00:59.494Z,18.03
2023-04-19T15:03:26.220Z,18.46
2023-04-19T15:05:53.017Z,19.20
2023-04-19T15:08:30.242Z,18.29
2023-04-19T15:10:57.330Z,18.31
2023-04-19T15:13:23.775Z,17.97
2023-04-19T15:15:50.259Z,18.14
2023-04-19T15:18:17.037Z,19.22
2023-04-19T15:20:43.444Z,19.32
2023-04-19T15:23:09.900Z,19.23
2023-04-19T15:25:36.366Z,19.23
2023-04-19T15:28:02.961Z,19.85
2023-04-19T15:30:29.368Z,20.16
2023-04-19T15:32:56.184Z,20.12
2023-04-19T15:35:22.797Z,21.16
2023-04-19T15:37:49.237Z,21.17
2023-04-19T15:40:17.061Z,21.06
2023-04-19T15:42:43.515Z,21.69
2023-04-19T15:45:10.310Z,21.51
2023-04-19T15:47:36.828Z,23.24
2023-04-19T15:50:04.604Z,22.74
2023-04-19T15:52:31.385Z,22.92
2023-04-19T15:54:57.810Z,22.47
2023-04-19T15:57:24.239Z,23.46
2023-04-19T15:59:50.669Z,23.24
2023-04-19T16:02:17.333Z,23.03
2023-04-19T16:04:47.152Z,23.09
2023-04-19T16:07:14.311Z,23.94
2023-04-19T16:09:40.711Z,23.72
2023-04-19T16:12:07.190Z,23.96
2023-04-19T16:14:33.649Z,24.21
2023-04-19T16:17:02.904Z,23.77
2023-04-19T16:19:29.398Z,24.19
2023-04-19T16:21:56.851Z,23.79
2023-04-19T16:24:23.284Z,23.69
2023-04-19T16:26:49.688Z,23.60
2023-04-19T16:29:16.490Z,23.53
2023-04-19T16:31:43.289Z,24.42
2023-04-19T16:34:09.815Z,24.37
2023-04-19T16:36:36.278Z,24.71
2023-04-19T16:39:02.811Z,25.33
2023-04-19T16:41:29.854Z,25.16
2023-04-19T16:43:56.492Z,25.11
2023-04-19T16:46:23.135Z,25.41
2023-04-19T16:48:49.597Z,25.35
2023-04-19T16:51:16.021Z,26.39
2023-04-19T16:53:43.577Z,26.85
2023-04-19T16:56:10.061Z,27.32
2023-04-19T16:58:36.588Z,26.83
2023-04-19T17:01:03.456Z,27.30
2023-04-19T17:03:33.065Z,27.51
2023-04-19T17:06:00.885Z,28.19
2023-04-19T17:08:27.336Z,28.79
2023-04-19T17:10:53.799Z,28.55
2023-04-19T17:13:20.275Z,29.01
2023-04-19T17:15:46.873Z,29.82
2023-04-19T17:18:13.425Z,30.36
2023-04-19T17:20:40.053Z,30.44
2023-04-19T17:23:06.783Z,30.60
2023-04-19T17:25:33.212Z,30.91
2023-04-19T17:27:59.696Z,31.92
2023-04-19T17:30:27.651Z,32.27
2023-04-19T17:32:54.074Z,32.89
2023-04-19T17:35:20.678Z,32.84
2023-04-19T17:37:47.415Z,32.95
2023-04-19T17:40:13.902Z,33.68
2023-04-19T17:42:40.340Z,33.94
2023-04-19T17:45:10.913Z,33.89
2023-04-19T17:47:38.515Z,34.38
2023-04-19T17:50:07.162Z,34.30
2023-04-19T17:52:34.191Z,34.46
2023-04-19T17:55:00.989Z,35.46
2023-04-19T17:57:29.086Z,36.28
2023-04-19T17:59:55.765Z,36.44
2023-04-19T18:02:22.992Z,37.30
2023-04-19T18:04:49.725Z,37.76
2023-04-19T18:07:16.174Z,38.44
2023-04-19T18:09:42.596Z,39.41
2023-04-19T18:12:09.107Z,39.98
2023-04-19T18:14:35.810Z,40.08
2023-04-19T18:17:03.096Z,41.08
2023-04-19T18:19:29.691Z,41.99
2023-04-19T18:21:56.424Z,42.68
2023-04-19T18:24:23.501Z,43.13
2023-04-19T18:26:50.184Z,43.27
2023-04-19T18:29:19.146Z,43.44
2023-04-19T18:31:45.643Z,44.25
2023-04-19T18:34:12.657Z,44.53
2023-04-19T18:36:39.247Z,45.27
2023-04-19T18:39:05.740Z,45.21
2023-04-19T18:41:32.226Z,44.88
2023-04-19T18:46:29.248Z,45.11
2023-04-19T18:48:55.772Z,45.24
2023-04-19T18:51:22.273Z,44.86
2023-04-19T18:53:49.607Z,46.05
2023-04-19T18:56:16.846Z,45.94
2023-04-19T18:58:43.471Z,46.41
2023-04-19T19:01:12.020Z,46.23
2023-04-19T19:04:00.603Z,46.42
2023-04-19T19:06:25.347Z,46.57
2023-04-19T19:08:51.883Z,46.77
2023-04-19T19:11:37.416Z,46.83
2023-04-19T19:14:04.727Z,47.28
2023-04-19T19:16:31.622Z,47.48
2023-04-19T19:18:58.116Z,47.58
2023-04-19T19:21:24.609Z,48.11
2023-04-19T19:23:53.404Z,48.73
2023-04-19T19:26:20.843Z,48.39
2023-04-19T19:28:47.426Z,48.50
2023-04-19T19:31:13.908Z,48.62
2023-04-19T19:33:40.906Z,48.65
2023-04-19T19:36:07.548Z,48.67
2023-04-19T19:38:37.005Z,49.78
2023-04-19T19:43:36.179Z,49.09
2023-04-19T19:46:02.857Z,49.11
2023-04-19T19:48:30.395Z,49.66
2023-04-19T19:51:28.636Z,49.50
2023-04-19T19:53:44.376Z,50.10
2023-04-19T19:56:18.292Z,49.70
2023-04-19T19:58:50.232Z,50.10
2023-04-19T20:01:18.081Z,50.02
2023-04-19T20:03:45.279Z,49.90
2023-04-19T20:06:57.132Z,50.06
2023-04-19T20:08:59.715Z,50.01
2023-04-19T20:11:26.339Z,50.21
2023-04-19T20:13:52.818Z,50.39
2023-04-19T20:16:19.621Z,50.44
2023-04-19T20:18:46.463Z,49.91
2023-04-19T20:21:12.970Z,49.82
2023-04-19T20:23:39.477Z,49.18
2023-04-19T20:26:05.928Z,49.23
2023-04-19T20:28:32.505Z,48.10
2023-04-19T20:30:58.890Z,47.02
2023-04-19T20:33:25.774Z,46.74
2023-04-19T20:35:53.510Z,45.78
2023-04-19T20:38:23.238Z,44.76
2023-04-19T20:40:49.646Z,43.86
2023-04-19T20:43:16.807Z,42.62
2023-04-19T20:45:43.305Z,41.31
2023-04-19T20:48:09.857Z,40.26
2023-04-19T20:50:36.318Z,39.65
2023-04-19T20:53:02.837Z,39.47
2023-04-19T20:55:29.277Z,39.04
2023-04-19T20:57:56.002Z,38.82
2023-04-19T21:00:22.457Z,38.72
2023-04-19T21:02:49.619Z,38.11
2023-04-19T21:05:16.243Z,37.55
2023-04-19T21:07:42.797Z,37.51
2023-04-19T21:10:11.268Z,36.77
2023-04-19T21:12:37.663Z,36.42
2023-04-19T21:15:04.958Z,36.44
2023-04-19T21:17:31.425Z,36.19
2023-04-19T21:19:57.837Z,35.87
2023-04-19T21:22:24.225Z,35.67
2023-04-19T21:24:50.753Z,35.41
2023-04-19T21:27:17.298Z,35.38
2023-04-19T21:29:43.812Z,35.16
2023-04-19T21:32:10.423Z,34.71
2023-04-19T21:34:38.209Z,35.33
2023-04-19T21:37:04.716Z,34.57
2023-04-19T21:39:31.219Z,34.77
2023-04-19T21:41:57.648Z,34.82
2023-04-19T21:44:24.112Z,34.48
2023-04-19T21:46:50.643Z,34.81
2023-04-19T21:49:17.349Z,34.20
2023-04-19T21:51:44.045Z,34.49
2023-04-19T21:54:10.806Z,34.49
2023-04-19T21:56:39.181Z,34.46
2023-04-19T21:59:05.648Z,34.40
2023-04-19T22:01:32.067Z,34.84
2023-04-19T22:03:58.544Z,34.62
2023-04-19T22:06:25.327Z,34.65
2023-04-19T22:08:51.740Z,34.79
2023-04-19T22:11:18.430Z,34.93
2023-04-19T22:13:45.002Z,35.25
2023-04-19T22:16:11.586Z,35.30
2023-04-19T22:18:38.212Z,35.70
2023-04-19T22:21:04.807Z,36.28
2023-04-19T22:23:31.279Z,36.74
2023-04-19T22:25:57.728Z,37.29
2023-04-19T22:28:24.165Z,37.40
2023-04-19T22:30:51.177Z,37.65
2023-04-19T22:33:18.849Z,37.56
2023-04-19T22:35:45.344Z,37.54
2023-04-19T22:38:11.797Z,37.87
2023-04-19T22:40:38.300Z,37.90
2023-04-19T22:43:04.733Z,37.88
2023-04-19T22:45:31.208Z,38.40
2023-04-19T22:47:57.718Z,38.84
2023-04-19T22:50:24.193Z,39.44
2023-04-19T22:52:50.874Z,39.01
2023-04-19T22:55:17.353Z,39.75
2023-04-19T22:57:44.012Z,39.60
2023-04-19T23:00:11.112Z,39.19
2023-04-19T23:02:38.469Z,39.58
2023-04-19T23:05:06.110Z,39.22
2023-04-19T23:07:33.206Z,39.84
2023-04-19T23:09:59.709Z,40.02
2023-04-19T23:12:26.155Z,39.69
2023-04-19T23:14:52.584Z,40.58
2023-04-19T23:17:19.811Z,40.67
2023-04-19T23:19:46.376Z,41.22
2023-04-19T23:22:12.804Z,40.98
2023-04-19T23:24:39.315Z,41.42
2023-04-19T23:27:05.782Z,42.00
2023-04-19T23:29:32.201Z,41.91
2023-04-19T23:31:58.666Z,42.61
2023-04-19T23:34:25.093Z,42.36
2023-04-19T23:36:51.765Z,43.17
2023-04-19T23:39:18.638Z,44.12
2023-04-19T23:41:45.635Z,44.34
2023-04-19T23:44:12.102Z,44.71
2023-04-19T23:46:38.684Z,44.16
2023-04-19T23:49:05.457Z,44.24
2023-04-19T23:51:32.850Z,44.66
2023-04-19T23:53:59.268Z,44.95
2023-04-19T23:56:25.878Z,45.27
2023-04-19T23:58:52.246Z,45.33
